Startpagina
METAR-TAF:

METAR-TAF

Vliegvelden :

Aeroport de Girona-Costa Brava

Gerona, Spanje

breedte: 41-54N, lengte: 002-46E, hoogte: 143 m

Actueel weer

Dit bericht is 37 minuten geleden gemaakt, om 20:30 UTC
Wind 2 kt uit variabele richting
Temperatuur 11°C
Vochtigheid 87%
Druk 1029 hPa
Zicht 10 km of meer
geen wolken onder 1500 m en geen cumulonimbus

METAR: LEGE 232030Z VRB02KT CAVOK 11/09 Q1029

Tijdstip: 22:07 (21:07 UTC)

Verwachting

Dit bericht is 4 uur en het 7 minuten geleden gemaakt, om 17:00 UTC
Verwachting geldig van 23 om 18 UTC tot 24 om 18 UTC
Wind 3 kt uit variabele richting
Zicht 10 km of meer
Weinig wolken op 3000 ft
Tijdelijke
van 23 om 20 UTC tot 23 om 24 UTC
Wind 7 kt uit het noordwesten
Kans 30% :
Tijdelijke
van 24 om 00 UTC tot 24 om 08 UTC
Zicht: 3000 m
nevel
Wijzigt naar
van 24 om 11 UTC tot 24 om 13 UTC
Wind 8 kt uit het zuiden

TAF: LEGE 231700Z 2318/2418 VRB03KT 9999 FEW030 TX22/2413Z TN03/2406Z TEMPO 2320/2324 31007KT PROB30 TEMPO 2400/2408 3000 BR BECMG 2411/2413 17008KT

Waarnemingen en weersverwachtingen van meer dan 4000 vliegvelden (METAR en TAF).

De beschikbare stations zijn de gele en rode punten op de kaart.

Ga met uw muis naar het station om de naam te zien.

Klik dan om waarnemingen en weersverwachtingen te zien.

kaart wijzigen: klik op de groene knoppen met een zwart kruis om in te zoomen, op de groene knop met een streepje om uit te zoomen of op de groene pijlen voor aangrenzende kaarten.


METAR-TAF: